createdAt,value
2022-08-17T00:02:28.772Z,4131
2022-08-17T00:10:11.404Z,4062
2022-08-17T00:19:42.148Z,4623
2022-08-17T00:28:33.653Z,4920
2022-08-17T00:36:36.504Z,4014
2022-08-17T00:44:28.806Z,4431
2022-08-17T00:52:10.668Z,4158
2022-08-17T00:59:56.089Z,4287
2022-08-17T01:07:48.170Z,4395
2022-08-17T01:16:22.307Z,4752
2022-08-17T01:24:01.429Z,4143
2022-08-17T01:32:42.395Z,4419
2022-08-17T01:40:45.919Z,4485
2022-08-17T01:48:26.308Z,4968
2022-08-17T01:56:03.249Z,4584
2022-08-17T02:04:32.837Z,4767
2022-08-17T02:13:11.805Z,4878
2022-08-17T02:20:45.100Z,4866
2022-08-17T02:28:28.375Z,4341
2022-08-17T02:37:12.113Z,4860
2022-08-17T02:45:14.724Z,4341
2022-08-17T02:53:17.383Z,5394
2022-08-17T03:01:47.844Z,5637
2022-08-17T03:09:16.226Z,5364
2022-08-17T03:16:52.201Z,5517
2022-08-17T03:25:18.058Z,5094
2022-08-17T03:32:50.678Z,5478
2022-08-17T03:40:34.345Z,5199
2022-08-17T03:48:45.891Z,5541
2022-08-17T03:56:28.442Z,5877
2022-08-17T04:03:56.818Z,5937
2022-08-17T04:11:44.796Z,5772
2022-08-17T04:19:32.650Z,5691
2022-08-17T04:27:28.826Z,5682
2022-08-17T04:35:50.681Z,6219
2022-08-17T04:43:21.506Z,6012
2022-08-17T04:51:16.689Z,6126
2022-08-17T04:59:08.962Z,6060
2022-08-17T05:07:23.140Z,6288
2022-08-17T05:14:54.045Z,6009
2022-08-17T05:22:23.060Z,5781
2022-08-17T05:30:49.988Z,6120
2022-08-17T05:38:31.730Z,6486
2022-08-17T05:46:29.183Z,6384
2022-08-17T05:54:13.154Z,6951
2022-08-17T06:01:53.163Z,6384
2022-08-17T06:09:25.858Z,6321
2022-08-17T06:17:08.297Z,6426
2022-08-17T06:24:44.665Z,6393
2022-08-17T06:32:47.041Z,5853
2022-08-17T06:40:22.961Z,5622
2022-08-17T06:48:38.163Z,6069
2022-08-17T06:56:52.881Z,6135
2022-08-17T07:04:46.869Z,5925
2022-08-17T07:12:26.301Z,5439
2022-08-17T07:20:33.888Z,5304
2022-08-17T07:28:15.379Z,5361
2022-08-17T07:36:12.536Z,4845
2022-08-17T07:43:51.208Z,5019
2022-08-17T07:51:33.560Z,4596
2022-08-17T08:00:07.471Z,4707
2022-08-17T08:08:54.806Z,4563
2022-08-17T08:16:42.247Z,4260
2022-08-17T08:25:32.049Z,4125
2022-08-17T08:33:04.617Z,3786
2022-08-17T08:42:26.673Z,3948
2022-08-17T08:51:11.846Z,4068
2022-08-17T08:59:57.762Z,3951
2022-08-17T09:08:24.814Z,3381
2022-08-17T09:16:06.986Z,3564
2022-08-17T09:24:20.538Z,3300
2022-08-17T09:31:49.341Z,3453
2022-08-17T09:39:29.325Z,2475
2022-08-17T09:47:13.277Z,2499
2022-08-17T09:55:13.016Z,2145
2022-08-17T10:03:21.439Z,2043
2022-08-17T10:11:07.129Z,2013
2022-08-17T10:19:24.130Z,2037
2022-08-17T10:28:40.830Z,2259
2022-08-17T10:36:40.707Z,1737
2022-08-17T10:49:07.038Z,2121
2022-08-17T11:07:50.346Z,1683
2022-08-17T11:15:30.833Z,1662
2022-08-17T11:23:21.769Z,1806
2022-08-17T11:31:01.196Z,2028
2022-08-17T11:38:41.274Z,2247
2022-08-17T11:46:39.193Z,1980
2022-08-17T11:55:31.701Z,1920
2022-08-17T12:03:06.523Z,1905
2022-08-17T12:10:41.087Z,1902
2022-08-17T12:18:50.562Z,1803
2022-08-17T12:26:27.804Z,1722
2022-08-17T12:34:49.210Z,2118
2022-08-17T12:42:36.181Z,1746
2022-08-17T12:50:28.375Z,1914
2022-08-17T12:58:23.694Z,2085
2022-08-17T13:05:58.586Z,2025
2022-08-17T13:13:24.957Z,2046
2022-08-17T13:21:21.474Z,1989
2022-08-17T13:29:13.002Z,2022
2022-08-17T13:38:17.126Z,1725
2022-08-17T13:46:09.233Z,1752
2022-08-17T13:53:45.371Z,1680
2022-08-17T14:02:28.901Z,1638
2022-08-17T14:10:30.942Z,1698
2022-08-17T14:18:15.369Z,1800
2022-08-17T14:25:54.287Z,2175
2022-08-17T14:33:55.026Z,1833
2022-08-17T14:41:28.002Z,1839
2022-08-17T14:49:08.784Z,1668
2022-08-17T14:57:02.876Z,1776
2022-08-17T15:05:07.742Z,1773
2022-08-17T15:12:56.425Z,1482
2022-08-17T15:20:32.130Z,1500
2022-08-17T15:28:08.189Z,1464
2022-08-17T15:36:04.670Z,1605
2022-08-17T15:43:44.019Z,1587
2022-08-17T15:51:17.279Z,1767
2022-08-17T15:59:08.699Z,1716
2022-08-17T16:09:10.042Z,1812
2022-08-17T16:17:15.573Z,2325
2022-08-17T16:25:12.856Z,2634
2022-08-17T16:33:05.529Z,2331
2022-08-17T16:40:50.029Z,2487
2022-08-17T16:48:17.241Z,2433
2022-08-17T16:56:20.956Z,2583
2022-08-17T17:04:08.090Z,2694
2022-08-17T17:11:47.986Z,2259
2022-08-17T17:20:09.428Z,939
2022-08-17T17:27:45.788Z,1014
2022-08-17T17:35:45.717Z,1122
2022-08-17T17:43:37.526Z,741
2022-08-17T17:52:07.515Z,1143
2022-08-17T18:00:21.034Z,1206
2022-08-17T18:07:53.725Z,1074
2022-08-17T18:15:43.465Z,1137
2022-08-17T18:23:28.811Z,1233
2022-08-17T18:31:11.018Z,1245
2022-08-17T18:39:03.974Z,1263
2022-08-17T18:46:42.876Z,1371
2022-08-17T18:54:36.406Z,1596
2022-08-17T19:02:38.981Z,1590
2022-08-17T19:10:22.558Z,1869
2022-08-17T19:18:00.568Z,1716
2022-08-17T19:25:36.603Z,1596
2022-08-17T19:34:10.777Z,1893
2022-08-17T19:42:00.906Z,1446
2022-08-17T19:50:14.971Z,1473
2022-08-17T19:57:55.011Z,1686
2022-08-17T20:06:01.276Z,1809
2022-08-17T20:14:10.388Z,1809
2022-08-17T20:22:04.455Z,1803
2022-08-17T20:30:13.717Z,1644
2022-08-17T20:37:46.760Z,1590
2022-08-17T20:45:29.383Z,2013
2022-08-17T20:53:46.160Z,2055
2022-08-17T21:01:16.393Z,1905
2022-08-17T21:09:04.129Z,1845
2022-08-17T21:17:13.166Z,1881
2022-08-17T21:24:51.495Z,2259
2022-08-17T21:33:07.323Z,2034
2022-08-17T21:41:15.423Z,2415
2022-08-17T21:48:45.567Z,2316
2022-08-17T21:56:31.147Z,2247
2022-08-17T22:04:22.154Z,2355
2022-08-17T22:12:15.554Z,1989
2022-08-17T22:20:12.655Z,2328
2022-08-17T22:27:46.770Z,2451
2022-08-17T22:35:14.975Z,2430
2022-08-17T22:42:56.506Z,2484
2022-08-17T22:50:29.413Z,2763
2022-08-17T22:58:15.608Z,2610
2022-08-17T23:06:00.243Z,2274
2022-08-17T23:18:15.174Z,2775
2022-08-17T23:26:03.208Z,2406
2022-08-17T23:33:30.713Z,2643
2022-08-17T23:41:13.015Z,2742
2022-08-17T23:48:43.220Z,2391
2022-08-17T23:56:45.158Z,2676
